Terminal Aerodrome Forecast
Issued by NWS Cleveland, OH

Home | Current Version | Previous Version | Text Only | Print | Product List | Glossary On
Versions: 1 2 3 4 5 6 7 8 9 10 11 12 13 14 15 16 17 18 19
250
FTUS41 KCLE 241914 AAA
TAFTOL
TAF AMD
KTOL 241914Z 2419/2518 24008KT P6SM SCT040 BKN100
      TEMPO 2419/2421 5SM -SHRA BKN025
     FM242300 22008KT P6SM SCT100
     FM250800 25010KT P6SM VCTS BKN035CB OVC080
     FM251200 26010KT P6SM SCT035 BKN100=

USA.gov is the U.S. government's official web portal to all federal, state and local government web resources and services.